Time;durP1;ratioP1;P1;durP2;ratioP2;P2;SDS_P1;SDS_P2;PMS_P1;PMS_P2;Temp;Humidity;BMP_temperature;BMP_pressure;BME280_temperature;BME280_humidity;BME280_pressure;Samples;Min_cycle;Max_cycle;Signal;HPM_P1;HPM_P2
2022/08/14 00:01:30;;;;;;;3.72;3.42;;;;;;;;;;5040547;28;20226;-83
2022/08/14 00:03:58;;;;;;;4.60;4.05;;;;;;;;;;5040863;28;20202;-83
2022/08/14 00:06:26;;;;;;;3.20;3.00;;;;;;;;;;5039463;28;20206;-82
2022/08/14 00:08:54;;;;;;;3.05;2.85;;;;;;;;;;5040426;28;20209;-83
2022/08/14 00:11:21;;;;;;;4.00;3.00;;;;;;;;;;5041200;28;20671;-81
2022/08/14 00:13:49;;;;;;;3.72;3.42;;;;;;;;;;5040199;28;20268;-82
2022/08/14 00:16:18;;;;;;;4.03;3.72;;;;;;;;;;5041048;28;20298;-82
2022/08/14 00:18:46;;;;;;;3.50;3.20;;;;;;;;;;5040169;28;20206;-81
2022/08/14 00:21:13;;;;;;;3.50;3.30;;;;;;;;;;5039247;28;20285;-81
2022/08/14 00:23:42;;;;;;;3.45;3.25;;;;;;;;;;5039043;28;20252;-81
2022/08/14 00:26:09;;;;;;;3.47;3.20;;;;;;;;;;5039433;28;20198;-83
2022/08/14 00:28:37;;;;;;;3.65;3.35;;;;;;;;;;5039709;28;20618;-82
2022/08/14 00:31:06;;;;;;;3.22;3.03;;;;;;;;;;5039533;28;20222;-83
2022/08/14 00:33:35;;;;;;;3.45;3.17;;;;;;;;;;5038591;28;20231;-83
2022/08/14 00:36:03;;;;;;;3.70;3.40;;;;;;;;;;5038446;28;20212;-82
2022/08/14 00:38:30;;;;;;;3.30;3.10;;;;;;;;;;5039939;28;20202;-82
2022/08/14 00:40:58;;;;;;;3.20;3.00;;;;;;;;;;5040300;28;20230;-82
2022/08/14 00:43:25;;;;;;;3.20;2.90;;;;;;;;;;5040002;28;20586;-82
2022/08/14 00:45:53;;;;;;;3.22;2.92;;;;;;;;;;5040587;28;20199;-82
2022/08/14 00:48:21;;;;;;;3.17;2.97;;;;;;;;;;5024274;28;20207;-81
2022/08/14 00:50:50;;;;;;;3.90;3.60;;;;;;;;;;5020799;28;20246;-82
2022/08/14 00:53:17;;;;;;;4.03;3.72;;;;;;;;;;5021403;28;20206;-82
2022/08/14 00:55:46;;;;;;;3.05;2.85;;;;;;;;;;5019803;28;20207;-81
2022/08/14 00:58:31;;;;;;;3.67;3.45;;;;;;;;;;5019544;28;20231;-82
2022/08/14 01:01:00;;;;;;;3.63;3.42;;;;;;;;;;5019620;28;20688;-81
2022/08/14 01:03:29;;;;;;;3.53;3.20;;;;;;;;;;5018961;28;20199;-82
2022/08/14 01:05:59;;;;;;;3.10;2.90;;;;;;;;;;5019990;28;20207;-82
2022/08/14 01:08:29;;;;;;;3.60;3.00;;;;;;;;;;5017795;28;20237;-82
2022/08/14 01:10:57;;;;;;;3.40;3.10;;;;;;;;;;5017583;28;20699;-83
2022/08/14 01:13:31;;;;;;;2.92;2.72;;;;;;;;;;5017262;28;20237;-83
2022/08/14 01:16:00;;;;;;;3.70;3.45;;;;;;;;;;5017827;28;20207;-82
2022/08/14 01:21:23;;;;;;;3.05;2.75;;;;;;;;;;5038051;28;20233;-81
2022/08/14 01:23:53;;;;;;;3.17;2.97;;;;;;;;;;5037926;28;20186;-82
2022/08/14 01:26:24;;;;;;;2.35;2.17;;;;;;;;;;5038451;28;20257;-80
2022/08/14 01:28:54;;;;;;;2.58;2.38;;;;;;;;;;5037677;28;20187;-82
2022/08/14 01:31:24;;;;;;;3.15;2.85;;;;;;;;;;5036854;28;20215;-81
2022/08/14 01:33:55;;;;;;;3.20;3.00;;;;;;;;;;5038730;28;20194;-82
2022/08/14 01:36:26;;;;;;;3.75;2.97;;;;;;;;;;5038310;28;20198;-83
2022/08/14 01:38:56;;;;;;;2.90;2.70;;;;;;;;;;5038284;28;20182;-82
2022/08/14 01:41:26;;;;;;;2.78;2.58;;;;;;;;;;5038720;28;20711;-82
2022/08/14 01:44:00;;;;;;;3.10;2.90;;;;;;;;;;5037594;28;20202;-83
2022/08/14 01:46:32;;;;;;;3.33;3.03;;;;;;;;;;5036940;28;20236;-83
2022/08/14 01:49:00;;;;;;;2.95;2.75;;;;;;;;;;5018794;28;20195;-82
2022/08/14 01:51:32;;;;;;;4.13;3.83;;;;;;;;;;5018272;28;20222;-80
2022/08/14 01:54:04;;;;;;;3.30;3.10;;;;;;;;;;5018066;28;20718;-82
2022/08/14 01:56:36;;;;;;;3.08;2.88;;;;;;;;;;5018168;28;20203;-84
2022/08/14 01:59:07;;;;;;;3.63;3.35;;;;;;;;;;5018322;28;20242;-82
2022/08/14 02:01:36;;;;;;;3.38;3.15;;;;;;;;;;5018178;28;20231;-82
2022/08/14 02:04:06;;;;;;;2.85;2.65;;;;;;;;;;5018073;28;20210;-83
2022/08/14 02:06:36;;;;;;;3.60;3.38;;;;;;;;;;5018272;28;20989;-84
2022/08/14 02:09:04;;;;;;;3.25;3.03;;;;;;;;;;5018292;28;20731;-83
2022/08/14 02:11:33;;;;;;;3.70;3.40;;;;;;;;;;5018221;28;20590;-83
2022/08/14 02:14:04;;;;;;;2.88;2.67;;;;;;;;;;5017826;28;20587;-83
2022/08/14 02:16:38;;;;;;;3.05;2.85;;;;;;;;;;5019374;28;20191;-83
2022/08/14 02:19:08;;;;;;;3.72;3.42;;;;;;;;;;5037937;28;20289;-83
2022/08/14 02:21:38;;;;;;;2.92;2.72;;;;;;;;;;5037514;28;20322;-82
2022/08/14 02:24:07;;;;;;;3.40;3.20;;;;;;;;;;5038418;28;20202;-83
2022/08/14 02:26:38;;;;;;;3.65;3.35;;;;;;;;;;5038502;28;20294;-81
2022/08/14 02:29:08;;;;;;;3.50;3.25;;;;;;;;;;5038130;28;20205;-81
2022/08/14 02:31:39;;;;;;;3.78;3.47;;;;;;;;;;5038383;28;20223;-82
2022/08/14 02:34:09;;;;;;;3.50;3.30;;;;;;;;;;5038214;28;20250;-81
2022/08/14 02:36:39;;;;;;;4.05;3.58;;;;;;;;;;5037989;28;20197;-82
2022/08/14 02:39:07;;;;;;;3.72;3.42;;;;;;;;;;5038370;28;20213;-81
2022/08/14 02:41:36;;;;;;;3.72;3.42;;;;;;;;;;5037291;28;20253;-82
2022/08/14 02:44:06;;;;;;;3.20;3.00;;;;;;;;;;5037562;28;20260;-82
2022/08/14 02:46:34;;;;;;;3.45;3.15;;;;;;;;;;5037419;28;20257;-82
2022/08/14 02:49:02;;;;;;;4.00;3.70;;;;;;;;;;5037883;28;20202;-83
2022/08/14 02:51:30;;;;;;;3.63;3.30;;;;;;;;;;5038131;28;20218;-83
2022/08/14 02:54:00;;;;;;;4.45;4.15;;;;;;;;;;5037915;28;20729;-83
2022/08/14 02:56:28;;;;;;;4.15;3.83;;;;;;;;;;5037891;28;20182;-83
2022/08/14 02:59:00;;;;;;;3.35;3.08;;;;;;;;;;5037948;28;20198;-82
2022/08/14 03:01:28;;;;;;;3.20;2.95;;;;;;;;;;5056346;23;20239;-75
2022/08/14 03:03:56;;;;;;;3.33;3.13;;;;;;;;;;5051531;28;20661;-76
2022/08/14 03:06:24;;;;;;;3.92;3.33;;;;;;;;;;5051192;28;20232;-77
2022/08/14 03:08:53;;;;;;;3.13;2.83;;;;;;;;;;5051423;28;20205;-77
2022/08/14 03:11:22;;;;;;;3.65;3.38;;;;;;;;;;5051620;28;20293;-77
2022/08/14 03:13:51;;;;;;;4.03;3.72;;;;;;;;;;5074739;22;20255;-80
2022/08/14 03:16:22;;;;;;;3.83;3.63;;;;;;;;;;5052008;28;20673;-79
2022/08/14 03:18:53;;;;;;;4.10;3.80;;;;;;;;;;5055621;28;20222;-80
2022/08/14 03:21:24;;;;;;;3.35;3.15;;;;;;;;;;5071818;28;20221;-80
2022/08/14 03:23:59;;;;;;;3.80;3.50;;;;;;;;;;5071905;28;20233;-80
2022/08/14 03:26:28;;;;;;;3.65;3.35;;;;;;;;;;5071793;28;20193;-79
2022/08/14 03:28:56;;;;;;;3.40;3.20;;;;;;;;;;5071922;28;20209;-79
2022/08/14 03:31:23;;;;;;;3.95;3.65;;;;;;;;;;5071841;28;20304;-80
2022/08/14 03:33:51;;;;;;;3.17;2.97;;;;;;;;;;5073707;28;20292;-79
2022/08/14 03:36:21;;;;;;;4.68;4.20;;;;;;;;;;5075562;28;20247;-79
2022/08/14 03:38:52;;;;;;;3.95;3.67;;;;;;;;;;5075621;28;20287;-80
2022/08/14 03:41:22;;;;;;;4.72;4.00;;;;;;;;;;5075863;28;20248;-80
2022/08/14 03:43:54;;;;;;;4.50;4.07;;;;;;;;;;5075469;28;20201;-80
2022/08/14 03:46:22;;;;;;;4.28;3.88;;;;;;;;;;5075122;28;20181;-79
2022/08/14 03:48:50;;;;;;;4.78;4.20;;;;;;;;;;5055247;28;20237;-80
2022/08/14 03:51:18;;;;;;;3.63;3.40;;;;;;;;;;5055513;28;20753;-79
2022/08/14 03:53:47;;;;;;;3.92;3.63;;;;;;;;;;5055409;28;20700;-79
2022/08/14 03:56:17;;;;;;;3.58;3.35;;;;;;;;;;5055146;28;20288;-79
2022/08/14 03:58:48;;;;;;;3.45;3.22;;;;;;;;;;5055146;28;20202;-79
2022/08/14 04:01:20;;;;;;;3.88;3.55;;;;;;;;;;5055395;28;20682;-79
2022/08/14 04:03:49;;;;;;;4.13;3.83;;;;;;;;;;5055505;28;20193;-79
2022/08/14 04:06:19;;;;;;;3.75;3.53;;;;;;;;;;5054837;28;20297;-80
2022/08/14 04:08:47;;;;;;;2.90;2.70;;;;;;;;;;5055146;28;20190;-79
2022/08/14 04:11:15;;;;;;;3.20;3.00;;;;;;;;;;5054866;28;20256;-79
2022/08/14 04:13:44;;;;;;;4.05;3.75;;;;;;;;;;5054659;28;20705;-79
2022/08/14 04:16:19;;;;;;;3.60;3.40;;;;;;;;;;5055116;28;20290;-79
2022/08/14 04:18:52;;;;;;;4.85;4.45;;;;;;;;;;5055039;28;20630;-80
2022/08/14 04:21:23;;;;;;;4.18;3.88;;;;;;;;;;5054486;28;20228;-80
2022/08/14 04:23:51;;;;;;;3.70;3.42;;;;;;;;;;5054536;28;20218;-80
2022/08/14 04:26:21;;;;;;;3.95;3.65;;;;;;;;;;5054632;28;20297;-80
2022/08/14 04:28:50;;;;;;;3.80;3.50;;;;;;;;;;5054538;28;20285;-80
2022/08/14 04:31:21;;;;;;;4.07;3.78;;;;;;;;;;5054356;28;20218;-79
2022/08/14 04:33:48;;;;;;;3.53;3.00;;;;;;;;;;5054551;28;20277;-80
2022/08/14 04:36:16;;;;;;;3.58;3.28;;;;;;;;;;5054514;28;20293;-80
2022/08/14 04:44:14;;;;;;;3.08;2.88;;;;;;;;;;5055752;28;20227;-80
2022/08/14 04:48:11;;;;;;;3.67;3.38;;;;;;;;;;5053532;28;20213;-80
2022/08/14 04:49:32;;;;;;;2.83;2.65;;;;;;;;;;5036460;28;20198;-81
2022/08/14 04:52:02;;;;;;;3.22;3.03;;;;;;;;;;5036960;28;20703;-80
2022/08/14 04:54:30;;;;;;;3.55;3.25;;;;;;;;;;5036494;28;20202;-80
2022/08/14 04:56:58;;;;;;;3.47;3.22;;;;;;;;;;5036276;28;20297;-80
2022/08/14 04:59:26;;;;;;;3.38;3.13;;;;;;;;;;5036793;28;20678;-80
2022/08/14 05:01:56;;;;;;;3.88;3.58;;;;;;;;;;5036959;28;20257;-81
2022/08/14 05:04:24;;;;;;;3.00;2.80;;;;;;;;;;5036741;28;20642;-80
2022/08/14 05:06:54;;;;;;;3.17;2.97;;;;;;;;;;5036633;28;20202;-81
2022/08/14 05:09:22;;;;;;;3.00;2.80;;;;;;;;;;5036445;28;20213;-80
2022/08/14 05:11:50;;;;;;;3.05;2.85;;;;;;;;;;5036379;28;20313;-80
2022/08/14 05:14:19;;;;;;;4.32;2.90;;;;;;;;;;5036218;28;20230;-80
2022/08/14 05:16:46;;;;;;;3.85;3.55;;;;;;;;;;5036537;28;20580;-79
2022/08/14 05:19:15;;;;;;;4.65;4.25;;;;;;;;;;5036272;28;20217;-80
2022/08/14 05:21:43;;;;;;;4.60;4.30;;;;;;;;;;5036291;28;20715;-79
2022/08/14 05:24:11;;;;;;;4.90;4.50;;;;;;;;;;5036060;28;20186;-79
2022/08/14 05:26:40;;;;;;;4.57;4.25;;;;;;;;;;5036049;28;20209;-80
2022/08/14 05:29:09;;;;;;;4.10;3.80;;;;;;;;;;5036140;28;20221;-80
2022/08/14 05:31:39;;;;;;;3.45;3.15;;;;;;;;;;5036406;28;20221;-80
2022/08/14 05:34:08;;;;;;;4.30;4.00;;;;;;;;;;5036394;28;20594;-81
2022/08/14 05:36:37;;;;;;;3.60;3.35;;;;;;;;;;5035997;28;20202;-80
2022/08/14 05:39:06;;;;;;;3.30;3.00;;;;;;;;;;5036044;28;20202;-80
2022/08/14 05:41:33;;;;;;;3.75;3.53;;;;;;;;;;5035321;28;20275;-81
2022/08/14 05:44:01;;;;;;;4.95;4.57;;;;;;;;;;5034880;28;20614;-81
2022/08/14 05:46:30;;;;;;;3.95;3.70;;;;;;;;;;5035569;28;20206;-80
2022/08/14 05:48:58;;;;;;;4.50;4.20;;;;;;;;;;5054994;28;20205;-81
2022/08/14 05:51:28;;;;;;;3.63;3.42;;;;;;;;;;5054655;28;20224;-81
2022/08/14 05:53:57;;;;;;;3.72;3.42;;;;;;;;;;5054674;28;20597;-80
2022/08/14 05:56:25;;;;;;;5.13;4.20;;;;;;;;;;5053490;28;20205;-81
2022/08/14 05:58:53;;;;;;;4.65;4.25;;;;;;;;;;5054460;28;20229;-81
2022/08/14 06:01:21;;;;;;;3.80;3.60;;;;;;;;;;5055051;28;20277;-81
2022/08/14 06:03:48;;;;;;;4.20;3.78;;;;;;;;;;5054730;28;20198;-80
2022/08/14 06:06:16;;;;;;;4.88;4.47;;;;;;;;;;5054784;28;20698;-81
2022/08/14 06:08:43;;;;;;;3.22;3.00;;;;;;;;;;5054796;28;20241;-80
2022/08/14 06:11:12;;;;;;;4.00;3.70;;;;;;;;;;5054856;28;20224;-81
2022/08/14 06:13:42;;;;;;;4.35;4.05;;;;;;;;;;5054691;28;20280;-81
2022/08/14 06:16:10;;;;;;;3.47;3.25;;;;;;;;;;5055065;28;20670;-80
2022/08/14 06:18:38;;;;;;;3.65;3.40;;;;;;;;;;5054410;28;20706;-81
2022/08/14 06:21:07;;;;;;;3.55;3.25;;;;;;;;;;5052714;28;20236;-81
2022/08/14 06:23:34;;;;;;;4.15;3.85;;;;;;;;;;5052594;28;20198;-80
2022/08/14 06:26:02;;;;;;;3.40;3.20;;;;;;;;;;5057465;28;20236;-81
2022/08/14 06:28:30;;;;;;;3.83;3.47;;;;;;;;;;5052354;28;20284;-80
2022/08/14 06:30:58;;;;;;;3.83;3.63;;;;;;;;;;5054918;28;20224;-80
2022/08/14 06:33:25;;;;;;;6.07;3.90;;;;;;;;;;5053271;28;20260;-81
2022/08/14 06:35:53;;;;;;;3.72;3.53;;;;;;;;;;5053670;28;20237;-81
2022/08/14 06:38:23;;;;;;;4.22;3.83;;;;;;;;;;5053602;28;20205;-81
2022/08/14 06:40:51;;;;;;;4.93;4.63;;;;;;;;;;5053138;28;20312;-81
2022/08/14 06:43:21;;;;;;;4.50;4.20;;;;;;;;;;5054468;28;20281;-81
2022/08/14 06:45:51;;;;;;;4.88;4.47;;;;;;;;;;5053667;28;20233;-82
2022/08/14 06:48:22;;;;;;;4.30;4.00;;;;;;;;;;5053812;28;20289;-81
2022/08/14 06:50:52;;;;;;;4.07;3.80;;;;;;;;;;5053171;28;20724;-81
2022/08/14 06:53:19;;;;;;;4.38;4.07;;;;;;;;;;5053564;28;20606;-81
2022/08/14 06:55:49;;;;;;;3.97;3.67;;;;;;;;;;5053236;28;20296;-81
2022/08/14 06:58:18;;;;;;;4.32;3.92;;;;;;;;;;5053917;28;20206;-81
2022/08/14 07:06:15;;;;;;;8.48;4.78;;;;;;;;;;5052695;28;20216;-82
2022/08/14 07:08:43;;;;;;;5.10;4.78;;;;;;;;;;5055372;28;20662;-82
2022/08/14 07:11:12;;;;;;;4.78;4.47;;;;;;;;;;5056945;28;20304;-81
2022/08/14 07:13:39;;;;;;;4.50;4.20;;;;;;;;;;5056918;28;20221;-81
2022/08/14 07:16:08;;;;;;;4.63;4.32;;;;;;;;;;5057491;28;20287;-81
2022/08/14 07:18:37;;;;;;;4.65;4.35;;;;;;;;;;5057193;28;20213;-81
2022/08/14 07:21:06;;;;;;;4.65;4.25;;;;;;;;;;5056900;28;20313;-82
2022/08/14 07:23:34;;;;;;;4.75;4.35;;;;;;;;;;5057487;28;20218;-81
2022/08/14 07:26:05;;;;;;;5.13;4.72;;;;;;;;;;5057820;28;20260;-82
2022/08/14 07:28:35;;;;;;;5.28;4.90;;;;;;;;;;5058001;28;20195;-80
2022/08/14 07:31:07;;;;;;;5.30;4.82;;;;;;;;;;5056489;28;20222;-82
2022/08/14 07:33:40;;;;;;;5.90;5.50;;;;;;;;;;5056391;28;20686;-82
2022/08/14 07:36:10;;;;;;;4.75;4.45;;;;;;;;;;5056657;28;20186;-82
2022/08/14 07:38:39;;;;;;;5.40;5.00;;;;;;;;;;5056590;28;20249;-82
2022/08/14 07:41:09;;;;;;;4.80;4.50;;;;;;;;;;5056371;28;20253;-81
2022/08/14 07:43:37;;;;;;;4.72;4.40;;;;;;;;;;5056700;28;20678;-83
2022/08/14 07:46:05;;;;;;;4.97;4.47;;;;;;;;;;5055732;28;20212;-81
2022/08/14 07:48:39;;;;;;;6.13;5.63;;;;;;;;;;5055604;28;20256;-82
2022/08/14 07:51:07;;;;;;;6.07;5.63;;;;;;;;;;5056178;28;20229;-82
2022/08/14 07:53:35;;;;;;;4.70;4.40;;;;;;;;;;5055812;28;20293;-80
2022/08/14 07:56:02;;;;;;;5.15;4.75;;;;;;;;;;5055966;28;20638;-81
2022/08/14 07:58:30;;;;;;;5.63;5.22;;;;;;;;;;5055514;28;20285;-82
2022/08/14 08:00:58;;;;;;;5.13;4.72;;;;;;;;;;5055611;28;20312;-83
2022/08/14 08:03:26;;;;;;;5.65;5.10;;;;;;;;;;5055848;28;20678;-81
2022/08/14 08:05:55;;;;;;;5.30;4.90;;;;;;;;;;5056255;28;20201;-81
2022/08/14 08:08:24;;;;;;;5.55;5.15;;;;;;;;;;5054883;28;20206;-81
2022/08/14 08:10:55;;;;;;;5.85;5.35;;;;;;;;;;5056206;28;20296;-82
2022/08/14 08:13:22;;;;;;;5.18;4.88;;;;;;;;;;5055806;28;20252;-82
2022/08/14 08:15:53;;;;;;;5.07;4.68;;;;;;;;;;5055432;28;20304;-82
2022/08/14 08:18:22;;;;;;;5.72;5.32;;;;;;;;;;5056371;28;20580;-82
2022/08/14 08:20:52;;;;;;;5.00;4.60;;;;;;;;;;5055235;28;20254;-80
2022/08/14 08:23:24;;;;;;;5.50;5.10;;;;;;;;;;5055502;28;20186;-82
2022/08/14 08:25:52;;;;;;;5.25;4.95;;;;;;;;;;5055666;28;20623;-81
2022/08/14 08:28:22;;;;;;;4.60;4.30;;;;;;;;;;5055588;28;20289;-81
2022/08/14 08:30:53;;;;;;;4.35;3.95;;;;;;;;;;5056311;28;20225;-82
2022/08/14 08:33:23;;;;;;;4.97;4.68;;;;;;;;;;5055195;28;20192;-84
2022/08/14 08:35:52;;;;;;;4.55;4.10;;;;;;;;;;5054933;28;20218;-87
2022/08/14 08:38:25;;;;;;;3.70;3.50;;;;;;;;;;5055757;28;20240;-81
2022/08/14 08:40:58;;;;;;;5.40;5.00;;;;;;;;;;5054790;28;20224;-83
2022/08/14 08:43:28;;;;;;;5.97;5.57;;;;;;;;;;5055102;28;20288;-82
2022/08/14 08:45:59;;;;;;;5.60;5.20;;;;;;;;;;5055259;28;20229;-86
2022/08/14 08:48:28;;;;;;;4.47;4.07;;;;;;;;;;5037780;28;20198;-81
2022/08/14 08:50:58;;;;;;;4.95;4.65;;;;;;;;;;5035350;28;20219;-85
2022/08/14 08:53:33;;;;;;;5.25;4.85;;;;;;;;;;5034645;28;20206;-88
2022/08/14 08:56:01;;;;;;;4.85;4.45;;;;;;;;;;5034166;28;20297;-84
2022/08/14 08:58:29;;;;;;;5.10;4.70;;;;;;;;;;5035143;28;20238;-84
2022/08/14 09:00:59;;;;;;;4.22;3.92;;;;;;;;;;5035145;28;20592;-85
2022/08/14 09:03:28;;;;;;;4.30;4.00;;;;;;;;;;5034880;28;20194;-86
2022/08/14 09:06:02;;;;;;;4.82;4.43;;;;;;;;;;5034169;28;20204;-85
2022/08/14 09:08:32;;;;;;;4.47;4.13;;;;;;;;;;5034616;28;20198;-86
2022/08/14 09:11:02;;;;;;;5.45;4.78;;;;;;;;;;5034219;28;20313;-85
2022/08/14 09:13:30;;;;;;;4.78;4.45;;;;;;;;;;5033866;28;20233;-85
2022/08/14 09:15:58;;;;;;;4.45;4.15;;;;;;;;;;5034068;28;20650;-85
2022/08/14 09:18:26;;;;;;;4.70;4.40;;;;;;;;;;5050817;28;20298;-86
2022/08/14 09:20:57;;;;;;;4.40;4.10;;;;;;;;;;5053867;28;20229;-86
2022/08/14 09:23:25;;;;;;;4.75;4.22;;;;;;;;;;5054074;28;20293;-84
2022/08/14 09:25:54;;;;;;;4.80;4.40;;;;;;;;;;5053847;28;20635;-85
2022/08/14 09:28:22;;;;;;;4.57;4.18;;;;;;;;;;5053563;28;20233;-85
2022/08/14 09:30:53;;;;;;;4.15;3.92;;;;;;;;;;5053457;28;20305;-87
2022/08/14 09:33:43;;;;;;;4.97;4.57;;;;;;;;;;5053998;28;20181;-86
2022/08/14 09:36:40;;;;;;;5.13;4.82;;;;;;;;;;5053527;28;20312;-85
2022/08/14 09:39:26;;;;;;;4.85;4.55;;;;;;;;;;5053682;28;20610;-86
2022/08/14 09:42:24;;;;;;;4.22;3.97;;;;;;;;;;5053419;28;20586;-87
2022/08/14 09:45:23;;;;;;;4.93;4.63;;;;;;;;;;5053591;28;20703;-84
2022/08/14 09:47:53;;;;;;;4.88;4.43;;;;;;;;;;5048266;28;20213;-85
2022/08/14 09:50:24;;;;;;;5.25;4.88;;;;;;;;;;5053060;28;20301;-83
2022/08/14 09:52:56;;;;;;;4.72;4.40;;;;;;;;;;5054404;28;20213;-84
2022/08/14 09:55:26;;;;;;;4.07;3.83;;;;;;;;;;5053632;28;20292;-81
2022/08/14 09:58:10;;;;;;;4.80;4.50;;;;;;;;;;5053888;28;20201;-81
2022/08/14 10:00:45;;;;;;;4.75;4.45;;;;;;;;;;5055716;28;20185;-83
2022/08/14 10:03:13;;;;;;;5.07;4.68;;;;;;;;;;5055623;28;20209;-82
2022/08/14 10:05:40;;;;;;;5.00;4.70;;;;;;;;;;5054088;28;20293;-81
2022/08/14 10:08:20;;;;;;;4.95;4.65;;;;;;;;;;5053352;28;20296;-82
2022/08/14 10:10:48;;;;;;;4.93;4.57;;;;;;;;;;5054481;28;22434;-82
2022/08/14 10:13:26;;;;;;;5.40;5.00;;;;;;;;;;5054396;28;20248;-83
2022/08/14 10:15:59;;;;;;;4.43;4.13;;;;;;;;;;5053536;28;20312;-82
2022/08/14 10:18:28;;;;;;;5.38;4.88;;;;;;;;;;5053396;28;20288;-82
2022/08/14 10:21:01;;;;;;;4.68;4.32;;;;;;;;;;5053658;28;20312;-83
2022/08/14 10:23:42;;;;;;;4.68;4.38;;;;;;;;;;5054763;28;20208;-83
2022/08/14 10:26:11;;;;;;;5.18;4.78;;;;;;;;;;5053603;28;20186;-83
2022/08/14 10:28:42;;;;;;;4.50;4.20;;;;;;;;;;5052978;28;20198;-84
2022/08/14 10:31:24;;;;;;;4.75;4.45;;;;;;;;;;5053292;28;20744;-83
2022/08/14 10:34:08;;;;;;;5.15;4.85;;;;;;;;;;5054049;28;20240;-84
2022/08/14 10:36:38;;;;;;;5.10;4.78;;;;;;;;;;5052010;28;20308;-84
2022/08/14 10:39:08;;;;;;;3.95;3.75;;;;;;;;;;5053795;28;20276;-83
2022/08/14 10:41:39;;;;;;;4.15;3.85;;;;;;;;;;5053971;28;20256;-83
2022/08/14 10:44:15;;;;;;;4.15;3.85;;;;;;;;;;5053328;28;20185;-82
2022/08/14 10:46:45;;;;;;;5.05;4.65;;;;;;;;;;5050321;28;20216;-88
2022/08/14 10:49:23;;;;;;;4.25;3.95;;;;;;;;;;5033353;28;20236;-84
2022/08/14 10:52:04;;;;;;;4.95;4.55;;;;;;;;;;5033405;28;20308;-84
2022/08/14 10:54:38;;;;;;;4.72;4.43;;;;;;;;;;5033662;28;20631;-85
2022/08/14 10:57:18;;;;;;;5.32;4.93;;;;;;;;;;5034192;28;20804;-84
2022/08/14 10:59:54;;;;;;;4.75;4.45;;;;;;;;;;5032935;28;20198;-84
2022/08/14 11:02:28;;;;;;;4.78;4.47;;;;;;;;;;5033243;28;20279;-84
2022/08/14 11:05:17;;;;;;;4.60;4.30;;;;;;;;;;5033988;28;20236;-84
2022/08/14 11:07:59;;;;;;;4.30;4.00;;;;;;;;;;5032776;28;20208;-83
2022/08/14 11:10:38;;;;;;;4.63;4.22;;;;;;;;;;5033405;28;20198;-85
2022/08/14 11:13:06;;;;;;;4.50;4.20;;;;;;;;;;5033679;28;20224;-83
2022/08/14 11:15:35;;;;;;;4.50;4.20;;;;;;;;;;5033682;28;20198;-83
2022/08/14 11:18:04;;;;;;;3.20;3.00;;;;;;;;;;5048044;28;20245;-83
2022/08/14 11:20:32;;;;;;;3.58;3.38;;;;;;;;;;5054879;28;20244;-83
2022/08/14 11:23:03;;;;;;;4.18;3.97;;;;;;;;;;5054908;28;20240;-84
2022/08/14 11:25:31;;;;;;;3.85;3.63;;;;;;;;;;5052530;28;20185;-85
2022/08/14 11:28:00;;;;;;;4.65;4.35;;;;;;;;;;5052447;28;20229;-84
2022/08/14 11:30:29;;;;;;;4.85;4.55;;;;;;;;;;5052973;28;20288;-84
2022/08/14 11:32:58;;;;;;;5.15;4.75;;;;;;;;;;5052538;28;20288;-85
2022/08/14 11:35:28;;;;;;;4.90;4.60;;;;;;;;;;5052237;28;20288;-84
2022/08/14 11:37:58;;;;;;;5.53;5.22;;;;;;;;;;5052586;28;20308;-85
2022/08/14 11:40:29;;;;;;;4.40;4.10;;;;;;;;;;5052551;28;20225;-83
2022/08/14 11:42:57;;;;;;;4.22;3.92;;;;;;;;;;5053936;28;20207;-83
2022/08/14 11:45:27;;;;;;;4.43;4.13;;;;;;;;;;5053173;28;20201;-83
2022/08/14 11:47:57;;;;;;;4.90;4.60;;;;;;;;;;5039965;28;20202;-84
2022/08/14 11:50:29;;;;;;;4.40;4.10;;;;;;;;;;5032183;28;20281;-83
2022/08/14 11:52:58;;;;;;;3.78;3.53;;;;;;;;;;5033967;28;20195;-83
2022/08/14 11:55:27;;;;;;;3.67;3.47;;;;;;;;;;5035569;28;20667;-83
2022/08/14 11:58:02;;;;;;;4.25;4.03;;;;;;;;;;5036762;28;20226;-83
2022/08/14 12:00:31;;;;;;;4.10;3.80;;;;;;;;;;5037288;28;20174;-84
2022/08/14 12:03:02;;;;;;;4.57;4.28;;;;;;;;;;5036452;28;20194;-83
2022/08/14 12:05:32;;;;;;;4.22;3.92;;;;;;;;;;5037915;28;20726;-83
2022/08/14 12:08:00;;;;;;;4.38;4.07;;;;;;;;;;5036673;28;20340;-83
2022/08/14 12:10:30;;;;;;;3.50;3.30;;;;;;;;;;5037236;28;20796;-83
2022/08/14 12:12:57;;;;;;;4.05;3.72;;;;;;;;;;5036781;28;20252;-83
2022/08/14 12:15:34;;;;;;;4.45;4.20;;;;;;;;;;5036002;28;20210;-83
2022/08/14 12:18:03;;;;;;;4.53;4.22;;;;;;;;;;5049537;28;20213;-83
2022/08/14 12:20:35;;;;;;;4.68;4.38;;;;;;;;;;5055363;28;20206;-84
2022/08/14 12:23:04;;;;;;;5.80;5.40;;;;;;;;;;5055572;28;20185;-83
2022/08/14 12:25:33;;;;;;;4.40;4.10;;;;;;;;;;5055579;28;20282;-84
2022/08/14 12:28:07;;;;;;;5.47;3.92;;;;;;;;;;5055632;28;20201;-85
2022/08/14 12:30:38;;;;;;;4.63;4.32;;;;;;;;;;5056936;28;20224;-83
2022/08/14 12:33:20;;;;;;;4.57;4.28;;;;;;;;;;5057205;28;20626;-83
2022/08/14 12:35:50;;;;;;;3.83;3.58;;;;;;;;;;5056676;28;20276;-84
2022/08/14 12:38:17;;;;;;;3.90;3.70;;;;;;;;;;5056749;28;20259;-83
2022/08/14 12:40:49;;;;;;;4.65;4.35;;;;;;;;;;5057498;28;20732;-85
2022/08/14 12:43:18;;;;;;;4.82;4.53;;;;;;;;;;5056320;28;20654;-84
2022/08/14 12:45:49;;;;;;;5.50;5.10;;;;;;;;;;5056458;28;20200;-84
2022/08/14 12:48:19;;;;;;;5.30;4.88;;;;;;;;;;5055788;28;20212;-84
2022/08/14 12:50:49;;;;;;;5.20;4.90;;;;;;;;;;5056045;28;20288;-84
2022/08/14 12:53:17;;;;;;;4.93;4.60;;;;;;;;;;5056350;28;20185;-84
2022/08/14 12:56:00;;;;;;;4.93;4.63;;;;;;;;;;5056241;28;20260;-83
2022/08/14 12:58:29;;;;;;;4.20;4.00;;;;;;;;;;5056524;28;20599;-84
2022/08/14 13:00:58;;;;;;;4.47;4.18;;;;;;;;;;5056572;28;20217;-84
2022/08/14 13:03:29;;;;;;;5.25;4.85;;;;;;;;;;5055654;28;20584;-83
2022/08/14 13:05:56;;;;;;;4.90;4.60;;;;;;;;;;5055358;28;20232;-83
2022/08/14 13:08:24;;;;;;;5.63;5.22;;;;;;;;;;5055597;28;20228;-84
2022/08/14 13:10:52;;;;;;;4.72;4.43;;;;;;;;;;5055057;28;20226;-84
2022/08/14 13:13:22;;;;;;;4.18;3.88;;;;;;;;;;5056148;28;20217;-84
2022/08/14 13:15:51;;;;;;;4.53;4.22;;;;;;;;;;5056538;28;20224;-84
2022/08/14 13:18:19;;;;;;;3.88;3.67;;;;;;;;;;5056359;28;20312;-84
2022/08/14 13:20:50;;;;;;;3.72;3.42;;;;;;;;;;5055732;28;20244;-83
2022/08/14 13:23:19;;;;;;;3.60;3.30;;;;;;;;;;5055102;28;20244;-83
2022/08/14 13:25:51;;;;;;;4.20;3.90;;;;;;;;;;5055296;28;20228;-84
2022/08/14 13:28:19;;;;;;;4.65;4.25;;;;;;;;;;5054532;28;20232;-83
2022/08/14 13:30:49;;;;;;;5.65;5.25;;;;;;;;;;5054816;28;20754;-82
2022/08/14 13:33:19;;;;;;;5.22;4.82;;;;;;;;;;5055003;28;20182;-84
2022/08/14 13:35:50;;;;;;;5.30;4.75;;;;;;;;;;5054484;28;20287;-83
2022/08/14 13:38:20;;;;;;;5.50;5.10;;;;;;;;;;5054117;28;20261;-84
2022/08/14 13:40:54;;;;;;;4.88;4.57;;;;;;;;;;5054442;28;20229;-84
2022/08/14 13:43:23;;;;;;;4.03;3.80;;;;;;;;;;5055879;28;20216;-83
2022/08/14 13:45:51;;;;;;;4.35;4.05;;;;;;;;;;5054541;28;20224;-83
2022/08/14 13:48:18;;;;;;;4.78;4.47;;;;;;;;;;5054220;28;20205;-83
2022/08/14 13:50:47;;;;;;;5.50;5.07;;;;;;;;;;5054975;28;20642;-84
2022/08/14 13:53:17;;;;;;;4.55;4.15;;;;;;;;;;5055387;28;20206;-84
2022/08/14 13:55:45;;;;;;;5.10;4.80;;;;;;;;;;5054505;28;20613;-84
2022/08/14 13:58:15;;;;;;;5.00;4.60;;;;;;;;;;5054067;28;20311;-83
2022/08/14 14:00:43;;;;;;;4.78;4.47;;;;;;;;;;5054199;28;20200;-82
2022/08/14 14:03:11;;;;;;;6.57;5.97;;;;;;;;;;5056153;28;20245;-83
2022/08/14 14:05:39;;;;;;;5.60;5.20;;;;;;;;;;5056871;28;20237;-82
2022/08/14 14:08:07;;;;;;;5.30;4.90;;;;;;;;;;5057552;28;20198;-84
2022/08/14 14:10:37;;;;;;;5.38;4.97;;;;;;;;;;5056210;28;20201;-84
2022/08/14 14:13:06;;;;;;;4.68;4.38;;;;;;;;;;5058337;28;20248;-84
2022/08/14 14:15:36;;;;;;;5.22;4.82;;;;;;;;;;5057888;28;20198;-83
2022/08/14 14:18:04;;;;;;;5.03;4.70;;;;;;;;;;5056522;28;20221;-85
2022/08/14 14:20:32;;;;;;;4.70;4.40;;;;;;;;;;5057810;28;20221;-83
2022/08/14 14:23:00;;;;;;;4.93;4.63;;;;;;;;;;5057898;28;20206;-84
2022/08/14 14:25:28;;;;;;;5.00;4.65;;;;;;;;;;5057092;28;20263;-85
2022/08/14 14:27:59;;;;;;;5.40;5.00;;;;;;;;;;5056365;28;20202;-84
2022/08/14 14:30:27;;;;;;;4.57;4.28;;;;;;;;;;5056084;28;20197;-83
2022/08/14 14:32:56;;;;;;;4.95;4.57;;;;;;;;;;5057945;28;20572;-83
2022/08/14 14:35:24;;;;;;;4.45;4.15;;;;;;;;;;5057169;28;20628;-83
2022/08/14 14:37:53;;;;;;;4.15;3.85;;;;;;;;;;5056395;28;20286;-83
2022/08/14 14:40:21;;;;;;;4.50;4.20;;;;;;;;;;5056980;28;20201;-83
2022/08/14 14:42:51;;;;;;;5.82;5.22;;;;;;;;;;5056925;28;20257;-83
2022/08/14 14:45:22;;;;;;;5.00;4.60;;;;;;;;;;5057794;28;20197;-83
2022/08/14 14:47:51;;;;;;;4.25;3.95;;;;;;;;;;5060243;28;20654;-83
2022/08/14 14:50:20;;;;;;;4.40;4.10;;;;;;;;;;5058817;28;20237;-83
2022/08/14 14:52:49;;;;;;;4.70;4.38;;;;;;;;;;5058121;28;20277;-82
2022/08/14 14:55:17;;;;;;;5.63;5.15;;;;;;;;;;5058213;28;20780;-82
2022/08/14 14:57:46;;;;;;;3.97;3.67;;;;;;;;;;5057832;28;20237;-83
2022/08/14 15:00:19;;;;;;;5.82;5.32;;;;;;;;;;5058329;28;20190;-82
2022/08/14 15:02:50;;;;;;;4.63;4.22;;;;;;;;;;5058352;28;20256;-83
2022/08/14 15:05:19;;;;;;;5.07;4.68;;;;;;;;;;5056533;28;20202;-84
2022/08/14 15:07:49;;;;;;;4.57;4.28;;;;;;;;;;5054984;28;20236;-84
2022/08/14 15:10:21;;;;;;;4.85;4.53;;;;;;;;;;5056910;28;20292;-83
2022/08/14 15:12:49;;;;;;;5.97;5.07;;;;;;;;;;5055322;28;20227;-83
2022/08/14 15:15:16;;;;;;;6.05;4.80;;;;;;;;;;5053089;28;20237;-83